createdAt,value
2023-03-22T00:01:25.260Z,13.30
2023-03-22T00:03:53.812Z,13.20
2023-03-22T00:06:21.815Z,13.20
2023-03-22T00:08:51.662Z,13.20
2023-03-22T00:11:20.845Z,13.10
2023-03-22T00:13:52.462Z,13.10
2023-03-22T00:16:21.853Z,13.10
2023-03-22T00:18:50.009Z,13.10
2023-03-22T00:21:19.105Z,13.10
2023-03-22T00:23:47.400Z,13.10
2023-03-22T00:26:16.522Z,13.10
2023-03-22T00:28:44.659Z,13.10
2023-03-22T00:31:14.074Z,13.10
2023-03-22T00:33:42.047Z,13.00
2023-03-22T00:36:12.430Z,13.00
2023-03-22T00:38:43.132Z,12.90
2023-03-22T00:41:13.966Z,12.80
2023-03-22T00:43:42.398Z,12.80
2023-03-22T00:46:10.922Z,12.70
2023-03-22T00:48:40.658Z,12.70
2023-03-22T00:51:09.870Z,12.70
2023-03-22T00:53:39.309Z,12.70
2023-03-22T00:56:12.309Z,12.80
2023-03-22T00:58:40.411Z,12.80
2023-03-22T01:01:08.679Z,12.80
2023-03-22T01:03:36.759Z,12.80
2023-03-22T01:06:06.707Z,12.80
2023-03-22T01:08:35.505Z,12.80
2023-03-22T01:11:03.513Z,12.80
2023-03-22T01:13:31.489Z,12.90
2023-03-22T01:15:59.463Z,12.80
2023-03-22T01:18:27.554Z,12.80
2023-03-22T01:20:55.702Z,12.80
2023-03-22T01:23:25.062Z,12.80
2023-03-22T01:25:53.132Z,12.80
2023-03-22T01:28:21.158Z,12.80
2023-03-22T01:30:50.583Z,12.70
2023-03-22T01:33:29.304Z,12.70
2023-03-22T01:35:57.444Z,12.70
2023-03-22T01:38:26.796Z,12.70
2023-03-22T01:40:54.843Z,12.70
2023-03-22T01:43:22.833Z,12.80
2023-03-22T01:45:51.763Z,12.70
2023-03-22T01:48:28.016Z,12.70
2023-03-22T01:51:07.158Z,12.70
2023-03-22T01:53:41.078Z,12.70
2023-03-22T01:56:10.719Z,12.70
2023-03-22T01:58:39.837Z,12.70
2023-03-22T02:01:10.556Z,12.70
2023-03-22T02:03:46.056Z,12.70
2023-03-22T02:06:14.067Z,12.70
2023-03-22T02:08:43.412Z,12.70
2023-03-22T02:11:16.858Z,12.70
2023-03-22T02:14:23.528Z,12.60
2023-03-22T02:17:06.285Z,12.60
2023-03-22T02:20:10.085Z,12.60
2023-03-22T02:23:05.858Z,12.60
2023-03-22T02:25:57.347Z,12.60
2023-03-22T02:28:33.914Z,12.60
2023-03-22T02:31:18.673Z,12.50
2023-03-22T02:34:32.605Z,12.50
2023-03-22T02:37:38.804Z,12.50
2023-03-22T02:40:16.194Z,12.50
2023-03-22T02:42:54.965Z,12.50
2023-03-22T02:45:29.378Z,12.40
2023-03-22T02:48:02.847Z,12.40
2023-03-22T02:50:36.461Z,12.40
2023-03-22T02:53:11.073Z,12.30
2023-03-22T02:55:44.787Z,12.30
2023-03-22T02:58:17.052Z,12.30
2023-03-22T03:00:47.459Z,12.30
2023-03-22T03:03:18.428Z,12.30
2023-03-22T03:05:49.109Z,12.30
2023-03-22T03:08:19.134Z,12.30
2023-03-22T03:10:49.340Z,12.30
2023-03-22T03:13:20.140Z,12.20
2023-03-22T03:15:53.913Z,12.20
2023-03-22T03:18:35.067Z,12.20
2023-03-22T03:21:11.013Z,12.10
2023-03-22T03:23:50.315Z,12.10
2023-03-22T03:26:28.868Z,12.10
2023-03-22T03:29:01.011Z,12.00
2023-03-22T03:31:35.956Z,12.00
2023-03-22T03:34:15.042Z,12.00
2023-03-22T03:36:50.180Z,12.00
2023-03-22T03:39:20.353Z,12.00
2023-03-22T03:41:52.790Z,12.00
2023-03-22T03:44:21.260Z,12.00
2023-03-22T03:46:50.030Z,12.00
2023-03-22T03:49:18.722Z,12.00
2023-03-22T03:51:49.317Z,12.10
2023-03-22T03:54:17.361Z,12.10
2023-03-22T03:56:47.738Z,12.10
2023-03-22T03:59:19.459Z,12.10
2023-03-22T04:01:51.694Z,12.10
2023-03-22T04:04:26.441Z,12.10
2023-03-22T04:06:56.643Z,12.10
2023-03-22T04:09:25.348Z,12.10
2023-03-22T04:11:53.318Z,12.10
2023-03-22T04:14:22.996Z,12.10
2023-03-22T04:16:51.099Z,12.20
2023-03-22T04:19:19.404Z,12.20
2023-03-22T04:21:47.837Z,12.20
2023-03-22T04:24:16.344Z,12.20
2023-03-22T04:26:44.376Z,12.20
2023-03-22T04:29:12.397Z,12.20
2023-03-22T04:31:41.829Z,12.20
2023-03-22T04:34:09.804Z,12.30
2023-03-22T04:36:39.593Z,12.30
2023-03-22T04:39:10.454Z,12.30
2023-03-22T04:41:39.123Z,12.30
2023-03-22T04:44:08.156Z,12.30
2023-03-22T04:46:37.671Z,12.40
2023-03-22T04:49:07.725Z,12.40
2023-03-22T04:51:35.778Z,12.40
2023-03-22T04:54:03.728Z,12.40
2023-03-22T04:56:31.755Z,12.30
2023-03-22T04:58:59.718Z,12.30
2023-03-22T05:01:27.860Z,12.30
2023-03-22T05:03:55.958Z,12.30
2023-03-22T05:06:25.333Z,12.20
2023-03-22T05:08:53.380Z,12.20
2023-03-22T05:11:21.922Z,12.20
2023-03-22T05:13:49.894Z,12.20
2023-03-22T05:16:17.896Z,12.20
2023-03-22T05:18:46.325Z,12.20
2023-03-22T05:21:16.008Z,12.20
2023-03-22T05:23:46.227Z,12.20
2023-03-22T05:26:16.147Z,12.20
2023-03-22T05:28:44.903Z,12.20
2023-03-22T05:31:14.559Z,12.20
2023-03-22T05:33:42.688Z,12.20
2023-03-22T05:36:12.249Z,12.20
2023-03-22T05:38:41.303Z,12.20
2023-03-22T05:41:10.756Z,12.20
2023-03-22T05:43:39.329Z,12.20
2023-03-22T05:46:09.192Z,12.20
2023-03-22T05:48:37.780Z,12.20
2023-03-22T05:51:07.515Z,12.20
2023-03-22T05:53:35.713Z,12.20
2023-03-22T05:56:03.827Z,12.20
2023-03-22T05:58:33.871Z,12.20
2023-03-22T06:01:07.354Z,12.20
2023-03-22T06:03:35.911Z,12.20
2023-03-22T06:06:06.703Z,12.30
2023-03-22T06:08:35.234Z,12.30
2023-03-22T06:11:03.345Z,12.30
2023-03-22T06:13:32.778Z,12.30
2023-03-22T06:16:01.432Z,12.40
2023-03-22T06:18:29.416Z,12.40
2023-03-22T06:20:57.678Z,12.40
2023-03-22T06:23:25.743Z,12.40
2023-03-22T06:25:53.927Z,12.40
2023-03-22T06:28:21.918Z,12.40
2023-03-22T06:30:51.322Z,12.50
2023-03-22T06:33:19.324Z,12.50
2023-03-22T06:35:47.328Z,12.60
2023-03-22T06:38:16.043Z,12.60
2023-03-22T06:40:44.036Z,12.60
2023-03-22T06:43:11.979Z,12.60
2023-03-22T06:45:40.047Z,12.70
2023-03-22T06:48:09.736Z,12.70
2023-03-22T06:50:39.986Z,12.70
2023-03-22T06:53:09.809Z,12.70
2023-03-22T06:55:37.942Z,12.80
2023-03-22T06:58:05.882Z,12.90
2023-03-22T07:00:34.289Z,12.90
2023-03-22T07:03:02.756Z,12.90
2023-03-22T07:05:32.119Z,13.00
2023-03-22T07:08:00.240Z,13.00
2023-03-22T07:10:28.246Z,13.10
2023-03-22T07:12:56.218Z,13.10
2023-03-22T07:15:24.814Z,13.20
2023-03-22T07:17:53.005Z,13.20
2023-03-22T07:20:21.091Z,13.20
2023-03-22T07:22:51.265Z,13.30
2023-03-22T07:25:19.233Z,13.30
2023-03-22T07:27:47.299Z,13.40
2023-03-22T07:30:15.440Z,13.50
2023-03-22T07:32:43.539Z,13.50
2023-03-22T07:35:11.740Z,13.50
2023-03-22T07:37:39.762Z,13.60
2023-03-22T07:40:10.650Z,13.70
2023-03-22T07:42:38.856Z,13.80
2023-03-22T07:45:08.066Z,13.90
2023-03-22T07:47:41.060Z,13.90
2023-03-22T07:50:11.745Z,14.00
2023-03-22T07:52:40.415Z,14.00
2023-03-22T07:55:10.746Z,14.10
2023-03-22T07:57:39.135Z,14.10
2023-03-22T08:00:09.695Z,14.20
2023-03-22T08:02:38.689Z,14.20
2023-03-22T08:05:07.449Z,14.20
2023-03-22T08:07:35.672Z,14.30
2023-03-22T08:10:03.706Z,14.40
2023-03-22T08:12:33.466Z,14.40
2023-03-22T08:15:01.663Z,14.60
2023-03-22T08:17:30.419Z,14.60
2023-03-22T08:19:59.591Z,14.70
2023-03-22T08:22:30.180Z,14.90
2023-03-22T08:24:58.168Z,15.00
2023-03-22T08:27:26.314Z,15.10
2023-03-22T08:29:55.742Z,15.30
2023-03-22T08:32:23.814Z,15.40
2023-03-22T08:34:52.671Z,15.50
2023-03-22T08:37:21.251Z,15.50
2023-03-22T08:39:49.453Z,15.60
2023-03-22T08:42:17.407Z,15.60
2023-03-22T08:44:46.081Z,15.70
2023-03-22T08:47:15.548Z,15.80
2023-03-22T08:49:43.584Z,15.90
2023-03-22T08:52:11.884Z,15.90
2023-03-22T08:54:39.851Z,16.00
2023-03-22T08:57:09.305Z,16.00
2023-03-22T08:59:37.358Z,16.10
2023-03-22T09:02:05.739Z,16.20
2023-03-22T09:04:35.343Z,16.30
2023-03-22T09:07:03.785Z,16.40
2023-03-22T09:09:31.773Z,16.50
2023-03-22T09:11:59.779Z,16.60
2023-03-22T09:14:27.923Z,16.70
2023-03-22T09:16:56.075Z,16.80
2023-03-22T09:19:30.389Z,16.90
2023-03-22T09:21:59.886Z,17.00
2023-03-22T09:24:27.892Z,17.00
2023-03-22T09:26:57.848Z,17.10
2023-03-22T09:29:25.885Z,17.20
2023-03-22T09:31:53.877Z,17.20
2023-03-22T09:34:22.012Z,17.20
2023-03-22T09:36:52.551Z,17.30
2023-03-22T09:39:22.500Z,17.30
2023-03-22T09:41:53.278Z,17.30
2023-03-22T09:44:25.447Z,17.30
2023-03-22T09:46:55.590Z,17.40
2023-03-22T09:49:28.352Z,17.50
2023-03-22T09:51:56.683Z,17.60
2023-03-22T09:54:33.811Z,17.70
2023-03-22T09:57:08.511Z,17.70
2023-03-22T09:59:45.466Z,17.70
2023-03-22T10:02:39.751Z,17.80
2023-03-22T10:05:19.837Z,17.90
2023-03-22T10:08:11.174Z,18.00
2023-03-22T10:10:41.983Z,18.10
2023-03-22T10:13:19.921Z,18.20
2023-03-22T10:15:50.100Z,18.30
2023-03-22T10:18:21.181Z,18.40
2023-03-22T10:20:55.485Z,18.40
2023-03-22T10:23:28.319Z,18.50
2023-03-22T10:25:58.479Z,18.60
2023-03-22T10:28:32.238Z,18.70
2023-03-22T10:31:00.775Z,18.70
2023-03-22T10:33:36.344Z,18.80
2023-03-22T10:36:06.285Z,18.90
2023-03-22T10:38:38.101Z,18.90
2023-03-22T10:41:09.708Z,18.90
2023-03-22T10:43:39.204Z,18.90
2023-03-22T10:46:13.396Z,18.90
2023-03-22T10:48:45.587Z,18.90
2023-03-22T10:51:22.095Z,18.90
2023-03-22T10:53:52.690Z,19.00
2023-03-22T10:56:22.859Z,19.00
2023-03-22T10:58:51.903Z,19.10
2023-03-22T11:01:28.025Z,19.20
2023-03-22T11:03:58.692Z,19.30
2023-03-22T11:06:29.872Z,19.20
2023-03-22T11:09:01.275Z,19.10
2023-03-22T11:11:32.113Z,19.10
2023-03-22T11:14:06.436Z,19.00
2023-03-22T11:16:43.795Z,19.00
2023-03-22T11:19:16.491Z,19.00
2023-03-22T11:21:46.181Z,19.10
2023-03-22T11:24:15.561Z,19.20
2023-03-22T11:27:03.914Z,19.30
2023-03-22T11:29:41.936Z,19.30
2023-03-22T11:32:22.931Z,19.30
2023-03-22T11:35:01.448Z,19.40
2023-03-22T11:37:29.606Z,19.40
2023-03-22T11:40:01.994Z,19.40
2023-03-22T11:42:34.978Z,19.50
2023-03-22T11:45:03.415Z,19.40
2023-03-22T11:47:38.983Z,19.40
2023-03-22T11:50:10.734Z,19.40
2023-03-22T11:52:39.002Z,19.40
2023-03-22T11:55:07.428Z,19.40
2023-03-22T11:57:38.343Z,19.40
2023-03-22T12:00:15.081Z,19.50
2023-03-22T12:02:48.978Z,19.50
2023-03-22T12:05:22.639Z,19.50
2023-03-22T12:07:56.183Z,19.50
2023-03-22T12:10:29.119Z,19.40
2023-03-22T12:13:01.850Z,19.40
2023-03-22T12:15:33.946Z,19.30
2023-03-22T12:18:07.956Z,19.30
2023-03-22T12:20:42.975Z,19.30
2023-03-22T12:23:16.506Z,19.30
2023-03-22T12:25:49.399Z,19.20
2023-03-22T12:28:21.785Z,19.10
2023-03-22T12:30:53.346Z,19.10
2023-03-22T12:33:25.969Z,19.10
2023-03-22T12:35:57.926Z,19.20
2023-03-22T12:38:30.643Z,19.10
2023-03-22T12:41:01.794Z,19.10
2023-03-22T12:43:43.236Z,19.20
2023-03-22T12:46:18.656Z,19.20
2023-03-22T12:48:51.628Z,19.20
2023-03-22T12:51:19.743Z,19.20
2023-03-22T12:53:50.229Z,19.10
2023-03-22T12:56:21.327Z,19.10
2023-03-22T12:58:55.752Z,19.10
2023-03-22T13:01:33.332Z,19.10
2023-03-22T13:04:01.504Z,19.20
2023-03-22T13:06:33.200Z,19.20
2023-03-22T13:09:17.074Z,19.20
2023-03-22T13:11:46.490Z,19.10
2023-03-22T13:14:51.918Z,19.00
2023-03-22T13:17:39.412Z,19.00
2023-03-22T13:20:34.091Z,19.00
2023-03-22T13:23:10.604Z,19.10
2023-03-22T13:25:39.964Z,19.10
2023-03-22T13:28:26.248Z,19.10
2023-03-22T13:30:57.404Z,19.20
2023-03-22T13:33:29.161Z,19.30
2023-03-22T13:35:59.534Z,19.30
2023-03-22T13:38:29.789Z,19.40
2023-03-22T13:41:03.584Z,19.40
2023-03-22T13:43:35.374Z,19.50
2023-03-22T13:46:15.049Z,19.60
2023-03-22T13:48:56.164Z,19.70
2023-03-22T13:51:31.708Z,19.60
2023-03-22T13:54:04.724Z,19.60
2023-03-22T13:56:35.926Z,19.60
2023-03-22T13:59:05.234Z,19.70
2023-03-22T14:01:37.559Z,19.70
2023-03-22T14:04:10.696Z,19.70
2023-03-22T14:06:46.100Z,19.70
2023-03-22T14:09:23.866Z,19.70
2023-03-22T14:11:57.397Z,19.80
2023-03-22T14:14:30.552Z,19.80
2023-03-22T14:17:04.970Z,19.80
2023-03-22T14:19:35.753Z,19.80
